EFOUEFSI

Guest
Details From EFOU - Oulu
To EFSI - Seinajoki
Flight Number -
Tags generated
Created
Modified
Stats Distance 151 nm / 280 km
Max Altitude 9,500 ft / 2,896 m
Waypoints 3
Social Downloads 0
Likes 0
Share VATSIM

Download

Looking for another format? Having issues loading an existing format? Contact us
Advertisement - Login to hide

Notes

Basic altitude profile: - Ascent Rate: 2500ft/min - Ascent Speed: 250kts - Cruise Altitude: 35000ft - Cruise Speed: 420kts - Descent Rate: 1500ft/min - Descent Speed: 250kts Options: - Use NATs: yes - Use PACOTS: yes - Use low airways: yes - Use high airways: yes

Route

EFOU TAKOT EFSI

ID Type Via Altitude Latitude Longitude Leg Dist Tot Dist Heading (true) Name
O EFOU APT - 0 ft / 0 m 64.93006˚ 25.35456˚ - 0 nm - Oulu
TAKOT FIX - 9,500 ft / 2,896 m 63.41333˚ 23.24250˚ 106 nm 106 nm 212° / 210° -
O EFSI APT - 0 ft / 0 m 62.69212˚ 22.83232˚ 44 nm 151 nm 195° / 194° Seinajoki

Altitude Profile

Advertisement - Login to hide

EFOU

Details ICAO EFOU (OUL)
Name Oulu
Region Finland
Timezone Europe/Helsinki (UTC+2.0)
Stats Elevation 47 ft / 14 m (AMSL)
Location 64.930059° 25.354560°
Runways 1
Magnetic Variation 10.660° E

METAR

EFOU 111720Z AUTO 15009KT 9999 FEW032 OVC045 M01/M02 Q1004

Decode

TAF

TAF EFOU 111424Z 1115/1215 14008KT 9999 BKN033 BECMG 1210/1212 08010KT 6000 SN TEMPO 1212/1215 1300 SN BKN010

Decode

Departure Runways

ID Width Length Bearing (true) Bearing (mag) Surface Threshold Offset Overrun Length
12 197 ft / 60 m 8,180 ft / 2,493 m 121.01° 110.35° Asphalt 0 ft / 0 m 200 ft / 61 m
30 197 ft / 60 m 8,180 ft / 2,493 m 301.05° 290.39° Asphalt 0 ft / 0 m 200 ft / 61 m

EFSI

Details ICAO EFSI (SJY)
Name Seinajoki
Region Finland
Timezone Europe/Helsinki (UTC+2.0)
Stats Elevation 301 ft / 92 m (AMSL)
Location 62.692119° 22.832325°
Runways 1
Magnetic Variation 8.806° E

METAR

EFSI 111720Z AUTO 11006KT 9999 OVC044 M00/M02 Q1002

Decode

TAF

Not found

Destination Runways

ID Width Length Bearing (true) Bearing (mag) Surface Threshold Offset Overrun Length
14 98 ft / 30 m 5,048 ft / 1,539 m 136.22° 127.41° Asphalt 0 ft / 0 m 0 ft / 0 m
32 98 ft / 30 m 5,048 ft / 1,539 m 316.23° 307.42° Asphalt 0 ft / 0 m 0 ft / 0 m

Approach Navaids

Runway Type Ident Frequency Range Bearing (true) Bearing (mag) Slope Elevation
32 Localiser IL 111.50 MHz 18 nm / 33 km 316.21° 307.41° - 301 ft / 92 m (AMSL)
32 Glidescope IL 111.50 MHz 10 nm / 19 km 316.23° 307.42° 3.00° 301 ft / 92 m (AMSL)